createdAt,value
2019-04-23T00:02:16.932Z,12.20
2019-04-23T00:04:45.609Z,12.20
2019-04-23T00:07:26.906Z,12.20
2019-04-23T00:09:47.044Z,12.20
2019-04-23T00:12:34.343Z,12.20
2019-04-23T00:17:30.428Z,12.10
2019-04-23T00:19:55.730Z,12.10
2019-04-23T00:22:45.341Z,12.10
2019-04-23T00:25:34.726Z,12.10
2019-04-23T00:27:51.833Z,12.10
2019-04-23T00:30:26.705Z,12.00
2019-04-23T00:32:55.745Z,12.00
2019-04-23T00:35:25.734Z,12.00
2019-04-23T00:38:05.556Z,12.00
2019-04-23T00:40:32.332Z,12.00
2019-04-23T00:43:04.077Z,11.90
2019-04-23T00:45:41.490Z,11.90
2019-04-23T00:48:09.367Z,12.00
2019-04-23T00:50:44.765Z,12.00
2019-04-23T00:53:12.710Z,11.90
2019-04-23T00:58:22.374Z,11.90
2019-04-23T01:00:51.472Z,11.90
2019-04-23T01:03:20.044Z,11.80
2019-04-23T01:05:47.006Z,11.90
2019-04-23T01:08:28.491Z,11.90
2019-04-23T01:10:59.814Z,11.90
2019-04-23T01:13:36.328Z,11.80
2019-04-23T01:16:00.716Z,11.80
2019-04-23T01:18:47.094Z,11.70
2019-04-23T01:20:54.012Z,11.80
2019-04-23T01:23:48.252Z,11.70
2019-04-23T01:26:31.329Z,11.70
2019-04-23T01:29:06.645Z,11.70
2019-04-23T01:31:43.121Z,11.80
2019-04-23T01:34:19.729Z,11.70
2019-04-23T01:36:43.001Z,11.70
2019-04-23T01:41:47.900Z,11.70
2019-04-23T01:44:23.994Z,11.70
2019-04-23T01:49:30.977Z,11.60
2019-04-23T01:51:54.906Z,11.60
2019-04-23T01:54:27.311Z,11.60
2019-04-23T01:56:58.933Z,11.60
2019-04-23T01:59:31.872Z,11.50
2019-04-23T02:01:58.400Z,11.50
2019-04-23T02:04:34.828Z,11.50
2019-04-23T02:07:06.553Z,11.50
2019-04-23T02:09:42.277Z,11.50
2019-04-23T02:12:11.486Z,11.50
2019-04-23T02:14:48.228Z,11.50
2019-04-23T02:17:15.827Z,11.50
2019-04-23T02:19:47.977Z,11.50
2019-04-23T02:22:25.037Z,11.50
2019-04-23T02:24:55.941Z,11.50
2019-04-23T02:27:30.039Z,11.50
2019-04-23T02:30:20.863Z,11.40
2019-04-23T02:32:39.847Z,11.50
2019-04-23T02:45:16.999Z,11.40
2019-04-23T02:50:31.476Z,11.40
2019-04-23T02:52:47.269Z,11.40
2019-04-23T02:55:29.387Z,11.40
2019-04-23T02:57:54.089Z,11.40
2019-04-23T03:00:30.368Z,11.40
2019-04-23T03:03:01.660Z,11.30
2019-04-23T03:05:24.977Z,11.30
2019-04-23T03:08:12.711Z,11.30
2019-04-23T03:10:31.683Z,11.20
2019-04-23T03:13:10.208Z,11.20
2019-04-23T03:15:58.730Z,11.30
2019-04-23T03:21:12.100Z,11.20
2019-04-23T03:23:52.120Z,11.20
2019-04-23T03:26:25.081Z,11.20
2019-04-23T03:34:10.958Z,11.20
2019-04-23T03:38:56.422Z,11.10
2019-04-23T03:41:27.858Z,11.20
2019-04-23T03:43:47.046Z,11.10
2019-04-23T03:46:29.332Z,11.10
2019-04-23T03:51:40.389Z,11.20
2019-04-23T03:54:24.423Z,11.20
2019-04-23T03:56:44.554Z,11.10
2019-04-23T04:02:04.394Z,11.10
2019-04-23T04:06:48.093Z,11.00
2019-04-23T04:11:33.480Z,11.00
2019-04-23T04:14:41.441Z,11.00
2019-04-23T04:16:49.162Z,11.00
2019-04-23T04:24:27.440Z,10.90
2019-04-23T04:32:04.310Z,11.00
2019-04-23T04:34:56.051Z,10.90
2019-04-23T04:42:10.351Z,10.90
2019-04-23T04:44:43.734Z,10.90
2019-04-23T04:47:14.444Z,10.90
2019-04-23T04:54:37.617Z,10.90
2019-04-23T04:57:19.951Z,10.90
2019-04-23T04:59:55.642Z,10.90
2019-04-23T05:02:30.339Z,10.90
2019-04-23T05:05:20.689Z,10.90
2019-04-23T05:07:35.972Z,10.90
2019-04-23T05:10:16.467Z,10.80
2019-04-23T05:12:39.083Z,10.70
2019-04-23T05:15:07.239Z,10.80
2019-04-23T05:18:08.392Z,10.80
2019-04-23T05:20:26.097Z,10.80
2019-04-23T05:23:06.021Z,10.80
2019-04-23T05:25:26.378Z,10.90
2019-04-23T05:30:39.500Z,10.80
2019-04-23T05:33:13.328Z,10.80
2019-04-23T05:36:04.918Z,10.80
2019-04-23T05:38:22.686Z,10.80
2019-04-23T05:40:45.044Z,10.80
2019-04-23T05:43:11.944Z,10.80
2019-04-23T05:45:44.724Z,10.80
2019-04-23T05:48:19.781Z,10.80
2019-04-23T05:53:18.512Z,10.90
2019-04-23T05:55:55.426Z,10.90
2019-04-23T06:01:19.874Z,10.90
2019-04-23T06:03:29.051Z,10.90
2019-04-23T06:06:22.768Z,10.90
2019-04-23T06:08:53.205Z,10.90
2019-04-23T06:11:39.532Z,10.90
2019-04-23T06:14:05.302Z,10.90
2019-04-23T06:16:41.829Z,11.00
2019-04-23T06:19:11.091Z,11.00
2019-04-23T06:21:47.916Z,11.00
2019-04-23T06:24:18.300Z,11.10
2019-04-23T06:26:47.425Z,11.10
2019-04-23T06:29:20.986Z,11.10
2019-04-23T06:37:02.835Z,11.20
2019-04-23T06:39:15.888Z,11.20
2019-04-23T06:41:54.812Z,11.30
2019-04-23T06:44:25.604Z,11.30
2019-04-23T06:47:03.250Z,11.40
2019-04-23T06:49:32.021Z,11.40
2019-04-23T06:52:09.999Z,11.40
2019-04-23T06:54:42.860Z,11.50
2019-04-23T06:59:39.528Z,11.60
2019-04-23T07:04:45.143Z,11.70
2019-04-23T07:07:31.403Z,11.80
2019-04-23T07:09:38.897Z,11.80
2019-04-23T07:12:18.223Z,11.90
2019-04-23T07:14:54.343Z,12.00
2019-04-23T07:17:13.859Z,12.00
2019-04-23T07:19:49.241Z,12.00
2019-04-23T07:24:52.879Z,12.10
2019-04-23T07:27:33.284Z,12.20
2019-04-23T07:30:03.215Z,12.20
2019-04-23T07:32:28.928Z,12.20
2019-04-23T07:35:01.254Z,12.20
2019-04-23T07:37:32.552Z,12.30
2019-04-23T07:40:22.912Z,12.40
2019-04-23T07:42:58.254Z,12.40
2019-04-23T07:45:24.052Z,12.50
2019-04-23T07:58:23.816Z,12.70
2019-04-23T08:03:39.814Z,12.80
2019-04-23T08:05:49.070Z,12.90
2019-04-23T08:16:32.932Z,13.10
2019-04-23T08:26:50.960Z,13.40
2019-04-23T08:31:50.370Z,13.50
2019-04-23T08:34:31.170Z,13.50
2019-04-23T08:36:55.431Z,13.60
2019-04-23T08:39:28.346Z,13.60
2019-04-23T08:44:38.720Z,13.70
2019-04-23T08:47:17.158Z,13.80
2019-04-23T08:49:47.637Z,13.80
2019-04-23T08:54:56.786Z,13.90
2019-04-23T09:00:05.933Z,14.00
2019-04-23T09:02:35.930Z,14.00
2019-04-23T09:05:00.504Z,14.10
2019-04-23T09:07:29.347Z,14.20
2019-04-23T09:10:07.596Z,14.20
2019-04-23T09:12:37.105Z,14.30
2019-04-23T09:15:13.016Z,14.30
2019-04-23T09:17:41.185Z,14.40
2019-04-23T09:20:17.986Z,14.50
2019-04-23T09:22:37.961Z,14.40
2019-04-23T09:25:22.806Z,14.40
2019-04-23T09:27:42.117Z,14.50
2019-04-23T09:30:14.818Z,14.50
2019-04-23T09:32:43.478Z,14.60
2019-04-23T09:38:11.630Z,14.70
2019-04-23T09:43:31.393Z,14.80
2019-04-23T09:46:17.694Z,14.90
2019-04-23T09:48:54.607Z,14.90
2019-04-23T09:51:24.173Z,15.10
2019-04-23T09:53:51.297Z,15.00
2019-04-23T09:56:22.098Z,15.10
2019-04-23T09:58:59.173Z,15.10
2019-04-23T10:03:52.402Z,15.20
2019-04-23T10:06:14.538Z,15.20
2019-04-23T10:08:46.429Z,15.10
2019-04-23T10:11:11.877Z,15.30
2019-04-23T10:13:44.806Z,15.40
2019-04-23T10:16:17.236Z,15.50
2019-04-23T10:18:47.063Z,15.40
2019-04-23T10:21:17.586Z,15.50
2019-04-23T10:23:49.476Z,15.50
2019-04-23T10:26:19.727Z,15.50
2019-04-23T10:28:51.982Z,15.60
2019-04-23T10:31:22.931Z,15.60
2019-04-23T10:33:53.047Z,15.60
2019-04-23T10:36:25.897Z,15.70
2019-04-23T10:39:00.523Z,15.70
2019-04-23T10:41:26.040Z,15.80
2019-04-23T10:43:58.718Z,15.80
2019-04-23T10:46:53.062Z,15.90
2019-04-23T10:52:12.914Z,16.00
2019-04-23T10:54:40.875Z,16.00
2019-04-23T10:57:11.275Z,16.00
2019-04-23T11:09:58.629Z,16.30
2019-04-23T11:12:37.029Z,16.30
2019-04-23T11:15:08.656Z,16.30
2019-04-23T11:17:38.435Z,16.30
2019-04-23T11:20:17.651Z,16.20
2019-04-23T11:25:18.638Z,16.40
2019-04-23T11:30:19.155Z,16.40
2019-04-23T11:32:58.743Z,16.50
2019-04-23T11:40:17.269Z,16.50
2019-04-23T11:42:49.833Z,16.60
2019-04-23T11:45:32.466Z,16.60
2019-04-23T11:50:35.477Z,16.70
2019-04-23T11:58:10.276Z,16.80
2019-04-23T12:00:38.920Z,16.80
2019-04-23T12:02:58.644Z,16.80
2019-04-23T12:06:09.411Z,16.90
2019-04-23T12:08:39.944Z,16.90
2019-04-23T12:11:48.720Z,17.00
2019-04-23T12:13:52.615Z,17.00
2019-04-23T12:16:27.955Z,16.90
2019-04-23T12:19:14.272Z,17.00
2019-04-23T12:21:33.520Z,17.00
2019-04-23T12:24:04.876Z,17.00
2019-04-23T12:26:39.039Z,17.00
2019-04-23T12:29:13.810Z,17.10
2019-04-23T12:31:47.214Z,17.10
2019-04-23T12:34:07.318Z,17.10
2019-04-23T12:36:43.787Z,17.10
2019-04-23T12:39:30.432Z,17.20
2019-04-23T12:41:43.436Z,17.20
2019-04-23T12:44:17.841Z,17.20
2019-04-23T12:46:55.452Z,17.20
2019-04-23T12:49:34.772Z,17.10
2019-04-23T12:52:14.290Z,17.20
2019-04-23T12:54:35.761Z,17.10
2019-04-23T12:57:04.821Z,17.10
2019-04-23T12:59:30.549Z,17.10
2019-04-23T13:02:08.227Z,17.10
2019-04-23T13:04:38.090Z,17.00
2019-04-23T13:07:09.849Z,17.10
2019-04-23T13:09:49.566Z,17.10
2019-04-23T13:12:20.195Z,17.10
2019-04-23T13:14:49.028Z,17.10
2019-04-23T13:17:29.658Z,17.10
2019-04-23T13:22:24.218Z,17.20
2019-04-23T13:24:53.933Z,17.20
2019-04-23T13:27:29.278Z,17.20
2019-04-23T13:29:58.411Z,17.10
2019-04-23T13:32:30.692Z,17.20
2019-04-23T13:35:15.043Z,17.30
2019-04-23T13:40:08.708Z,17.30
2019-04-23T13:45:27.494Z,18.00
2019-04-23T13:47:53.246Z,18.30
2019-04-23T13:50:23.632Z,18.30
2019-04-23T14:00:34.714Z,18.50
2019-04-23T14:02:54.524Z,18.50
2019-04-23T14:05:36.587Z,18.50
2019-04-23T14:08:17.900Z,18.40
2019-04-23T14:10:48.121Z,18.40
2019-04-23T14:13:28.793Z,18.40
2019-04-23T14:20:53.259Z,18.40
2019-04-23T14:23:27.725Z,18.50
2019-04-23T14:26:13.032Z,18.50
2019-04-23T14:28:28.884Z,18.40
2019-04-23T14:33:37.412Z,18.30
2019-04-23T14:36:00.511Z,18.30
2019-04-23T14:38:40.819Z,18.30
2019-04-23T14:41:09.571Z,18.30
2019-04-23T14:43:40.255Z,18.40
2019-04-23T14:46:50.194Z,18.40
2019-04-23T14:53:48.465Z,18.40
2019-04-23T14:56:23.843Z,18.30
2019-04-23T14:59:05.987Z,18.30
2019-04-23T15:01:51.280Z,18.20
2019-04-23T15:03:55.288Z,18.10
2019-04-23T15:06:54.827Z,18.10
2019-04-23T15:11:35.343Z,18.20
2019-04-23T15:14:11.937Z,18.10
2019-04-23T15:16:46.053Z,18.00
2019-04-23T15:24:30.654Z,17.90
2019-04-23T15:27:15.786Z,17.90
2019-04-23T15:28:00.160Z,17.90
2019-04-23T15:29:22.823Z,17.90
2019-04-23T15:32:07.824Z,17.90
2019-04-23T15:34:32.728Z,17.90
2019-04-23T15:44:40.710Z,17.70
2019-04-23T15:47:20.221Z,17.60
2019-04-23T15:49:54.887Z,17.50
2019-04-23T15:52:24.844Z,17.60
2019-04-23T15:54:56.997Z,17.70
2019-04-23T15:57:32.351Z,17.70
2019-04-23T15:59:55.599Z,17.70
2019-04-23T16:01:56.995Z,17.70
2019-04-23T16:04:27.623Z,17.60
2019-04-23T16:06:57.724Z,17.50
2019-04-23T16:10:04.418Z,17.50
2019-04-23T16:12:25.534Z,17.50
2019-04-23T16:15:03.011Z,17.50
2019-04-23T16:17:37.448Z,17.50
2019-04-23T16:27:36.560Z,17.50
2019-04-23T16:33:02.495Z,17.40
2019-04-23T16:35:43.639Z,17.30
2019-04-23T16:38:10.348Z,17.30
2019-04-23T16:40:34.837Z,17.30
2019-04-23T16:43:07.429Z,17.20
2019-04-23T16:45:31.039Z,17.20
2019-04-23T16:48:15.673Z,17.20
2019-04-23T16:50:54.745Z,17.30
2019-04-23T16:53:17.437Z,17.10
2019-04-23T16:58:22.874Z,17.10
2019-04-23T17:01:02.576Z,17.10
2019-04-23T17:03:28.278Z,17.00
2019-04-23T17:05:50.618Z,17.00
2019-04-23T17:11:08.950Z,17.00
2019-04-23T17:13:25.912Z,16.90
2019-04-23T17:16:00.855Z,16.90
2019-04-23T17:18:41.554Z,16.90
2019-04-23T17:20:58.290Z,17.00
2019-04-23T17:23:49.696Z,16.80
2019-04-23T17:26:04.105Z,16.80
2019-04-23T17:28:31.811Z,16.90
2019-04-23T17:31:28.006Z,16.80
2019-04-23T17:44:10.014Z,16.70
2019-04-23T17:46:34.182Z,16.60
2019-04-23T17:49:10.798Z,16.50
2019-04-23T17:51:44.400Z,16.60
2019-04-23T17:56:55.991Z,16.50
2019-04-23T18:02:00.381Z,16.40
2019-04-23T18:12:00.637Z,16.30
2019-04-23T18:14:16.286Z,16.30
2019-04-23T18:19:33.690Z,16.30
2019-04-23T18:22:21.918Z,16.20
2019-04-23T18:27:38.380Z,16.20
2019-04-23T18:30:11.821Z,16.20
2019-04-23T18:33:12.511Z,16.10
2019-04-23T18:37:51.108Z,16.10
2019-04-23T18:40:23.186Z,16.00
2019-04-23T18:42:53.559Z,16.00
2019-04-23T18:45:35.559Z,16.00
2019-04-23T18:47:54.710Z,16.00
2019-04-23T18:50:43.153Z,15.90
2019-04-23T18:53:10.229Z,15.90
2019-04-23T18:55:54.369Z,15.90
2019-04-23T18:58:15.493Z,15.80
2019-04-23T19:00:53.494Z,15.80
2019-04-23T19:03:43.785Z,15.80
2019-04-23T19:09:13.968Z,15.80
2019-04-23T19:14:25.727Z,15.70
2019-04-23T19:24:28.620Z,15.60
2019-04-23T19:29:40.232Z,15.50
2019-04-23T19:34:39.360Z,15.50
2019-04-23T19:37:41.719Z,15.50
2019-04-23T19:39:46.945Z,15.50
2019-04-23T19:42:10.338Z,15.50
2019-04-23T19:49:53.419Z,15.50
2019-04-23T19:52:46.839Z,15.50
2019-04-23T19:57:40.759Z,15.40
2019-04-23T19:59:59.492Z,15.40
2019-04-23T20:04:59.677Z,15.30
2019-04-23T20:10:03.747Z,15.30
2019-04-23T20:12:40.030Z,15.30
2019-04-23T20:15:26.188Z,15.30
2019-04-23T20:17:47.622Z,15.20
2019-04-23T20:20:09.018Z,15.30
2019-04-23T20:22:52.023Z,15.20
2019-04-23T20:28:02.634Z,15.20
2019-04-23T20:31:04.252Z,15.20
2019-04-23T20:38:33.000Z,15.10
2019-04-23T20:41:05.739Z,15.10
2019-04-23T20:43:40.417Z,15.10
2019-04-23T20:46:00.045Z,15.10
2019-04-23T20:50:57.053Z,15.10
2019-04-23T20:53:44.917Z,15.10
2019-04-23T20:59:03.024Z,15.10
2019-04-23T21:06:39.829Z,15.00
2019-04-23T21:09:27.893Z,15.00
2019-04-23T21:11:48.272Z,15.00
2019-04-23T21:14:50.863Z,15.00
2019-04-23T21:16:41.242Z,15.00
2019-04-23T21:19:20.859Z,14.90
2019-04-23T21:22:09.069Z,14.90
2019-04-23T21:24:44.936Z,14.90
2019-04-23T21:27:21.703Z,14.90
2019-04-23T21:29:58.717Z,14.90
2019-04-23T21:32:24.917Z,14.80
2019-04-23T21:35:04.640Z,14.80
2019-04-23T21:37:49.998Z,14.70
2019-04-23T21:43:01.000Z,14.80
2019-04-23T21:45:40.845Z,14.70
2019-04-23T21:48:11.860Z,14.80
2019-04-23T21:50:57.551Z,14.70
2019-04-23T21:53:06.240Z,14.80
2019-04-23T21:55:56.163Z,14.70
2019-04-23T21:58:28.927Z,14.70
2019-04-23T22:01:00.830Z,14.70
2019-04-23T22:06:00.332Z,14.60
2019-04-23T22:08:19.572Z,14.60
2019-04-23T22:11:08.802Z,14.70
2019-04-23T22:13:34.847Z,14.70
2019-04-23T22:16:05.716Z,14.60
2019-04-23T22:18:34.570Z,14.70
2019-04-23T22:21:06.533Z,14.70
2019-04-23T22:23:42.045Z,14.70
2019-04-23T22:26:25.314Z,14.60
2019-04-23T22:28:51.199Z,14.60
2019-04-23T22:31:12.343Z,14.60
2019-04-23T22:33:46.691Z,14.60
2019-04-23T22:38:41.043Z,14.60
2019-04-23T22:41:16.147Z,14.50
2019-04-23T22:44:04.074Z,14.50
2019-04-23T22:46:28.043Z,14.50
2019-04-23T22:49:06.298Z,14.40
2019-04-23T22:56:35.133Z,14.40
2019-04-23T22:59:18.610Z,14.40
2019-04-23T23:04:15.489Z,14.30
2019-04-23T23:06:52.272Z,14.30
2019-04-23T23:11:51.131Z,14.30
2019-04-23T23:16:50.426Z,14.30
2019-04-23T23:19:28.261Z,14.20
2019-04-23T23:24:18.179Z,14.20
2019-04-23T23:26:57.381Z,14.20
2019-04-23T23:29:21.859Z,14.20
2019-04-23T23:32:03.226Z,14.20
2019-04-23T23:34:38.461Z,14.20
2019-04-23T23:37:07.549Z,14.20
2019-04-23T23:39:37.155Z,14.20
2019-04-23T23:42:16.008Z,14.20
2019-04-23T23:44:50.305Z,14.10
2019-04-23T23:49:44.244Z,14.10
2019-04-23T23:54:45.469Z,14.10
